createdAt,value
2022-10-12T00:00:27.437Z,96.30
2022-10-12T00:03:04.535Z,96.20
2022-10-12T00:05:31.312Z,96.30
2022-10-12T00:07:58.298Z,96.20
2022-10-12T00:10:25.154Z,96.10
2022-10-12T00:12:51.952Z,96.10
2022-10-12T00:15:21.773Z,96.20
2022-10-12T00:17:48.707Z,96.10
2022-10-12T00:20:18.274Z,96.20
2022-10-12T00:22:54.049Z,96.20
2022-10-12T00:25:21.029Z,96.10
2022-10-12T00:27:48.498Z,96.20
2022-10-12T00:30:15.443Z,96.20
2022-10-12T00:32:45.601Z,96.20
2022-10-12T00:35:12.324Z,96.40
2022-10-12T00:37:44.438Z,96.30
2022-10-12T00:40:11.824Z,96.30
2022-10-12T00:42:38.744Z,96.30
2022-10-12T00:45:06.046Z,96.20
2022-10-12T00:47:36.328Z,96.20
2022-10-12T00:50:31.885Z,96.30
2022-10-12T00:57:57.230Z,96.20
2022-10-12T01:00:24.419Z,96.40
2022-10-12T01:02:55.535Z,96.50
2022-10-12T01:05:24.114Z,96.50
2022-10-12T01:07:51.310Z,96.40
2022-10-12T01:10:18.310Z,96.20
2022-10-12T01:12:48.428Z,96.10
2022-10-12T01:15:15.957Z,95.90
2022-10-12T01:18:00.828Z,95.90
2022-10-12T01:20:43.189Z,95.90
2022-10-12T01:23:19.001Z,96.00
2022-10-12T01:26:16.761Z,96.30
2022-10-12T01:28:58.807Z,96.20
2022-10-12T01:31:50.086Z,96.10
2022-10-12T01:34:43.242Z,96.10
2022-10-12T01:37:27.928Z,96.30
2022-10-12T01:39:57.363Z,96.20
2022-10-12T01:42:33.585Z,96.20
2022-10-12T01:45:09.819Z,96.20
2022-10-12T01:47:39.208Z,96.40
2022-10-12T01:50:12.845Z,96.80
2022-10-12T01:52:47.054Z,96.80
2022-10-12T01:55:31.488Z,96.80
2022-10-12T01:58:20.846Z,96.90
2022-10-12T02:01:24.862Z,96.90
2022-10-12T02:04:03.116Z,96.80
2022-10-12T02:06:38.227Z,96.80
2022-10-12T02:09:25.897Z,96.90
2022-10-12T02:11:57.435Z,96.60
2022-10-12T02:14:31.395Z,96.30
2022-10-12T02:17:05.733Z,96.40
2022-10-12T02:19:38.633Z,96.30
2022-10-12T02:22:10.244Z,96.30
2022-10-12T02:24:43.962Z,95.90
2022-10-12T02:27:15.761Z,96.10
2022-10-12T02:29:44.690Z,96.20
2022-10-12T02:32:38.566Z,96.10
2022-10-12T02:35:24.427Z,95.90
2022-10-12T02:38:12.102Z,95.90
2022-10-12T02:40:43.159Z,95.70
2022-10-12T02:43:20.097Z,96.00
2022-10-12T02:45:48.656Z,96.10
2022-10-12T02:48:23.423Z,96.30
2022-10-12T02:50:56.732Z,96.40
2022-10-12T02:53:25.019Z,96.30
2022-10-12T02:55:54.502Z,96.40
2022-10-12T02:58:21.256Z,96.20
2022-10-12T03:00:48.131Z,96.40
2022-10-12T03:03:19.905Z,96.30
2022-10-12T03:05:50.711Z,96.40
2022-10-12T03:08:25.114Z,96.10
2022-10-12T03:10:52.230Z,96.20
2022-10-12T03:13:19.872Z,96.00
2022-10-12T03:15:46.762Z,95.90
2022-10-12T03:18:13.887Z,95.70
2022-10-12T03:20:40.877Z,95.60
2022-10-12T03:23:08.002Z,95.50
2022-10-12T03:25:34.948Z,95.90
2022-10-12T03:28:01.904Z,95.90
2022-10-12T03:30:31.974Z,95.70
2022-10-12T03:32:58.773Z,95.80
2022-10-12T03:35:27.834Z,95.70
2022-10-12T03:37:54.613Z,95.90
2022-10-12T03:40:21.356Z,95.80
2022-10-12T03:42:48.059Z,95.80
2022-10-12T03:45:14.957Z,95.80
2022-10-12T03:47:42.104Z,95.70
2022-10-12T03:50:09.603Z,95.50
2022-10-12T03:52:36.558Z,95.70
2022-10-12T03:55:03.693Z,96.00
2022-10-12T03:57:30.522Z,95.90
2022-10-12T03:59:57.294Z,96.10
2022-10-12T04:02:24.316Z,96.10
2022-10-12T04:04:51.077Z,96.00
2022-10-12T04:07:17.949Z,96.00
2022-10-12T04:09:44.837Z,96.20
2022-10-12T04:12:14.578Z,96.40
2022-10-12T04:14:47.218Z,96.40
2022-10-12T04:17:16.577Z,96.20
2022-10-12T04:19:43.847Z,96.00
2022-10-12T04:22:11.146Z,96.10
2022-10-12T04:24:37.977Z,96.10
2022-10-12T04:27:04.758Z,95.80
2022-10-12T04:29:33.336Z,95.50
2022-10-12T04:32:00.269Z,95.70
2022-10-12T04:34:27.384Z,95.70
2022-10-12T04:36:54.427Z,95.80
2022-10-12T04:39:21.206Z,95.90
2022-10-12T04:41:48.131Z,96.20
2022-10-12T04:44:14.995Z,96.40
2022-10-12T04:46:41.827Z,96.10
2022-10-12T04:49:08.550Z,95.90
2022-10-12T04:51:35.421Z,96.00
2022-10-12T04:54:04.836Z,95.80
2022-10-12T04:56:31.658Z,95.70
2022-10-12T04:58:58.424Z,95.80
2022-10-12T05:01:25.281Z,95.80
2022-10-12T05:03:55.190Z,95.70
2022-10-12T05:06:24.973Z,95.90
2022-10-12T05:08:52.023Z,96.00
2022-10-12T05:11:19.044Z,96.00
2022-10-12T05:13:48.170Z,95.80
2022-10-12T05:16:15.287Z,95.70
2022-10-12T05:18:42.490Z,95.50
2022-10-12T05:21:12.582Z,96.00
2022-10-12T05:23:44.692Z,96.10
2022-10-12T05:26:30.462Z,96.10
2022-10-12T05:29:28.542Z,96.20
2022-10-12T05:35:02.120Z,96.00
2022-10-12T06:00:15.103Z,95.70
2022-10-12T06:02:50.347Z,97.20
2022-10-12T06:16:36.113Z,95.60
2022-10-12T06:19:10.029Z,95.70
2022-10-12T06:22:09.648Z,95.60
2022-10-12T06:27:36.432Z,95.60
2022-10-12T06:30:05.967Z,95.60
2022-10-12T06:32:42.854Z,96.00
2022-10-12T06:35:29.630Z,95.80
2022-10-12T06:37:58.884Z,95.80
2022-10-12T06:40:46.709Z,95.80
2022-10-12T06:47:01.008Z,95.50
2022-10-12T06:49:45.196Z,95.50
2022-10-12T06:52:11.902Z,95.70
2022-10-12T06:54:38.704Z,95.60
2022-10-12T06:57:06.185Z,95.40
2022-10-12T06:59:33.068Z,95.50
2022-10-12T07:04:40.698Z,95.10
2022-10-12T07:07:07.680Z,95.10
2022-10-12T07:09:34.520Z,95.30
2022-10-12T07:12:01.270Z,95.50
2022-10-12T07:14:27.937Z,95.60
2022-10-12T07:16:55.598Z,95.60
2022-10-12T07:19:22.520Z,95.60
2022-10-12T07:21:50.515Z,95.30
2022-10-12T07:24:17.337Z,95.50
2022-10-12T07:26:46.609Z,95.10
2022-10-12T07:29:15.539Z,94.90
2022-10-12T07:31:49.684Z,94.70
2022-10-12T07:34:18.683Z,94.90
2022-10-12T07:36:58.701Z,95.10
2022-10-12T07:39:26.903Z,95.30
2022-10-12T07:41:54.277Z,95.20
2022-10-12T07:44:22.736Z,95.20
2022-10-12T07:46:49.497Z,95.30
2022-10-12T07:49:16.910Z,95.20
2022-10-12T07:51:44.689Z,95.20
2022-10-12T07:54:12.286Z,95.10
2022-10-12T07:56:41.274Z,95.30
2022-10-12T07:59:08.118Z,95.40
2022-10-12T08:01:35.511Z,95.40
2022-10-12T08:04:02.421Z,95.40
2022-10-12T08:06:32.054Z,95.50
2022-10-12T08:09:00.159Z,95.50
2022-10-12T08:11:29.982Z,95.50
2022-10-12T08:13:59.707Z,95.50
2022-10-12T08:16:26.491Z,95.60
2022-10-12T08:18:53.254Z,95.50
2022-10-12T08:24:07.391Z,95.50
2022-10-12T08:29:28.336Z,95.20
2022-10-12T08:31:55.753Z,95.00
2022-10-12T08:34:22.494Z,95.00
2022-10-12T08:36:49.286Z,94.90
2022-10-12T08:39:17.979Z,94.70
2022-10-12T08:42:08.588Z,95.00
2022-10-12T08:45:05.960Z,94.60
2022-10-12T08:47:43.029Z,94.60
2022-10-12T08:50:29.047Z,94.40
2022-10-12T08:53:07.254Z,94.10
2022-10-12T08:55:42.223Z,94.10
2022-10-12T08:58:21.860Z,94.00
2022-10-12T09:00:52.625Z,94.20
2022-10-12T09:03:41.844Z,94.20
2022-10-12T09:06:22.930Z,94.20
2022-10-12T09:08:49.641Z,94.30
2022-10-12T09:11:33.873Z,94.20
2022-10-12T09:14:28.562Z,94.30
2022-10-12T09:16:56.899Z,94.30
2022-10-12T09:19:34.955Z,94.80
2022-10-12T09:22:03.812Z,94.30
2022-10-12T09:24:35.701Z,94.30
2022-10-12T09:27:14.725Z,94.00
2022-10-12T09:29:45.016Z,94.20
2022-10-12T09:32:21.009Z,93.80
2022-10-12T09:34:50.114Z,93.80
2022-10-12T09:37:23.289Z,93.70
2022-10-12T09:39:50.620Z,93.80
2022-10-12T09:42:19.564Z,93.70
2022-10-12T09:44:55.099Z,93.60
2022-10-12T09:47:23.468Z,93.50
2022-10-12T09:49:52.191Z,93.20
2022-10-12T09:52:25.073Z,93.00
2022-10-12T09:55:16.634Z,93.00
2022-10-12T09:57:52.608Z,93.20
2022-10-12T10:00:40.278Z,92.40
2022-10-12T10:03:27.916Z,92.30
2022-10-12T10:06:05.129Z,92.40
2022-10-12T10:08:44.354Z,92.60
2022-10-12T10:11:35.204Z,91.90
2022-10-12T10:14:02.222Z,92.00
2022-10-12T10:16:30.591Z,91.60
2022-10-12T10:19:00.456Z,91.40
2022-10-12T10:21:28.731Z,91.00
2022-10-12T10:24:01.548Z,90.70
2022-10-12T10:26:49.380Z,90.70
2022-10-12T10:29:30.664Z,90.60
2022-10-12T10:32:27.426Z,90.70
2022-10-12T10:35:07.266Z,90.70
2022-10-12T10:37:35.191Z,90.70
2022-10-12T10:40:03.174Z,90.60
2022-10-12T10:42:32.641Z,90.20
2022-10-12T10:45:09.335Z,90.10
2022-10-12T10:47:46.452Z,90.10
2022-10-12T10:50:31.534Z,89.90
2022-10-12T10:53:01.147Z,89.60
2022-10-12T10:55:50.846Z,90.00
2022-10-12T10:58:27.900Z,89.40
2022-10-12T11:01:07.472Z,88.70
2022-10-12T11:03:52.154Z,87.90
2022-10-12T11:06:19.312Z,88.20
2022-10-12T11:08:48.782Z,89.10
2022-10-12T11:11:22.402Z,89.10
2022-10-12T11:14:02.297Z,88.80
2022-10-12T11:16:34.899Z,88.00
2022-10-12T11:19:26.520Z,86.80
2022-10-12T11:22:06.606Z,85.10
2022-10-12T11:24:52.847Z,85.80
2022-10-12T11:27:23.326Z,86.00
2022-10-12T11:30:08.440Z,86.20
2022-10-12T11:32:41.792Z,85.10
2022-10-12T11:35:25.243Z,84.90
2022-10-12T11:38:15.427Z,85.40
2022-10-12T11:41:19.089Z,85.00
2022-10-12T11:44:11.683Z,85.90
2022-10-12T11:46:52.599Z,85.70
2022-10-12T11:49:37.739Z,85.70
2022-10-12T11:52:10.471Z,84.70
2022-10-12T11:54:44.721Z,84.80
2022-10-12T11:57:22.705Z,84.60
2022-10-12T12:00:00.359Z,84.80
2022-10-12T12:03:02.595Z,84.80
2022-10-12T12:05:32.142Z,83.90
2022-10-12T12:07:59.079Z,83.20
2022-10-12T12:10:25.853Z,83.40
2022-10-12T12:13:17.764Z,82.20
2022-10-12T12:15:47.343Z,81.30
2022-10-12T12:18:20.396Z,78.80
2022-10-12T12:20:47.094Z,78.00
2022-10-12T12:23:25.440Z,78.00
2022-10-12T12:26:05.031Z,79.50
2022-10-12T12:28:33.045Z,78.80
2022-10-12T12:31:02.903Z,78.50
2022-10-12T12:33:36.046Z,78.20
2022-10-12T12:36:06.628Z,79.50
2022-10-12T12:38:53.742Z,79.20
2022-10-12T12:41:25.542Z,77.70
2022-10-12T12:43:56.065Z,75.10
2022-10-12T12:46:25.748Z,74.70
2022-10-12T12:48:52.407Z,75.90
2022-10-12T12:51:26.725Z,77.20
2022-10-12T12:54:04.055Z,78.60
2022-10-12T12:56:54.224Z,79.10
2022-10-12T12:59:58.508Z,79.90
2022-10-12T13:02:52.445Z,79.60
2022-10-12T13:05:57.679Z,77.30
2022-10-12T13:08:39.551Z,74.10
2022-10-12T13:11:32.704Z,73.20
2022-10-12T13:14:18.252Z,74.40
2022-10-12T13:17:39.275Z,75.80
2022-10-12T13:20:25.045Z,76.80
2022-10-12T13:22:52.909Z,77.40
2022-10-12T13:25:43.193Z,78.80
2022-10-12T13:28:16.845Z,79.20
2022-10-12T13:31:02.209Z,79.40
2022-10-12T13:33:40.677Z,79.10
2022-10-12T13:36:26.595Z,76.40
2022-10-12T13:38:58.444Z,74.60
2022-10-12T13:41:30.398Z,75.00
2022-10-12T13:44:03.800Z,75.20
2022-10-12T13:46:48.469Z,74.70
2022-10-12T13:49:29.868Z,72.10
2022-10-12T13:52:01.931Z,72.00
2022-10-12T13:54:34.727Z,70.20
2022-10-12T13:57:05.011Z,69.60
2022-10-12T13:59:37.582Z,68.50
2022-10-12T14:02:16.880Z,69.00
2022-10-12T14:04:44.041Z,68.30
2022-10-12T14:07:21.834Z,68.10
2022-10-12T14:09:54.485Z,69.50
2022-10-12T14:12:25.631Z,71.40
2022-10-12T14:14:53.410Z,72.00
2022-10-12T14:17:21.347Z,74.20
2022-10-12T14:19:53.871Z,74.10
2022-10-12T14:22:24.208Z,74.40
2022-10-12T14:25:08.551Z,73.60
2022-10-12T14:27:38.262Z,73.10
2022-10-12T14:30:18.912Z,72.70
2022-10-12T14:32:46.572Z,73.30
2022-10-12T14:35:22.667Z,74.60
2022-10-12T14:37:50.707Z,75.10
2022-10-12T14:40:30.291Z,75.90
2022-10-12T14:43:09.465Z,77.00
2022-10-12T14:45:36.689Z,77.50
2022-10-12T14:48:05.085Z,77.70
2022-10-12T14:50:32.863Z,76.70
2022-10-12T14:53:03.833Z,76.30
2022-10-12T14:55:33.216Z,74.70
2022-10-12T14:58:00.643Z,74.20
2022-10-12T15:00:33.935Z,73.90
2022-10-12T15:03:01.351Z,73.80
2022-10-12T15:05:31.781Z,71.40
2022-10-12T15:07:59.384Z,71.20
2022-10-12T15:10:27.562Z,70.70
2022-10-12T15:12:54.850Z,71.10
2022-10-12T15:15:48.399Z,71.20
2022-10-12T15:18:15.207Z,71.20
2022-10-12T15:20:46.732Z,71.40
2022-10-12T15:23:15.857Z,71.40
2022-10-12T15:26:26.151Z,70.60
2022-10-12T15:28:52.918Z,71.10
2022-10-12T15:31:19.663Z,69.60
2022-10-12T15:33:46.667Z,68.60
2022-10-12T15:36:16.333Z,67.80
2022-10-12T15:38:45.584Z,67.90
2022-10-12T15:41:18.024Z,67.70
2022-10-12T15:43:44.936Z,67.80
2022-10-12T15:46:12.352Z,67.70
2022-10-12T15:48:40.533Z,67.60
2022-10-12T15:51:23.082Z,69.00
2022-10-12T15:53:52.248Z,71.50
2022-10-12T15:56:28.616Z,73.70
2022-10-12T15:58:55.456Z,75.70
2022-10-12T16:01:22.316Z,76.90
2022-10-12T16:03:49.665Z,78.30
2022-10-12T16:06:21.690Z,78.70
2022-10-12T16:08:48.732Z,79.20
2022-10-12T16:11:17.360Z,81.30
2022-10-12T16:13:51.108Z,81.30
2022-10-12T16:16:20.696Z,81.70
2022-10-12T16:18:47.498Z,82.30
2022-10-12T16:21:14.170Z,82.60
2022-10-12T16:23:41.196Z,82.80
2022-10-12T16:26:11.937Z,83.30
2022-10-12T16:28:38.824Z,83.80
2022-10-12T16:31:15.351Z,84.80
2022-10-12T16:33:42.221Z,84.30
2022-10-12T16:36:14.169Z,84.30
2022-10-12T16:38:44.201Z,84.70
2022-10-12T16:41:18.606Z,85.40
2022-10-12T16:43:47.703Z,85.70
2022-10-12T16:46:14.491Z,86.20
2022-10-12T16:48:44.441Z,86.20
2022-10-12T16:51:14.758Z,86.50
2022-10-12T16:53:44.284Z,86.60
2022-10-12T16:56:11.097Z,86.80
2022-10-12T16:58:37.777Z,87.40
2022-10-12T17:01:14.147Z,87.50
2022-10-12T17:03:41.635Z,87.70
2022-10-12T17:06:09.028Z,87.90
2022-10-12T17:08:38.807Z,88.10
2022-10-12T17:11:09.962Z,88.30
2022-10-12T17:13:43.066Z,88.60
2022-10-12T17:16:30.481Z,88.60
2022-10-12T17:18:59.655Z,88.60
2022-10-12T17:21:28.203Z,88.60
2022-10-12T17:23:59.400Z,89.00
2022-10-12T17:26:26.922Z,89.20
2022-10-12T17:28:54.425Z,89.50
2022-10-12T17:31:21.230Z,89.80
2022-10-12T17:33:49.103Z,89.90
2022-10-12T17:36:15.946Z,90.00
2022-10-12T17:38:42.760Z,90.00
2022-10-12T17:41:09.562Z,90.40
2022-10-12T17:43:36.350Z,90.60
2022-10-12T17:46:05.641Z,90.80
2022-10-12T17:48:32.959Z,90.80
2022-10-12T17:51:09.857Z,91.00
2022-10-12T17:53:37.156Z,91.10
2022-10-12T17:56:05.526Z,91.10
2022-10-12T17:58:32.765Z,91.30
2022-10-12T18:01:05.758Z,91.50
2022-10-12T18:03:36.106Z,91.60
2022-10-12T18:06:07.322Z,91.70
2022-10-12T18:08:34.140Z,91.90
2022-10-12T18:11:02.093Z,92.00
2022-10-12T18:13:29.957Z,92.10
2022-10-12T18:15:56.863Z,92.30
2022-10-12T18:18:24.529Z,92.50
2022-10-12T18:20:51.769Z,92.60
2022-10-12T18:23:18.688Z,92.70
2022-10-12T18:25:48.952Z,92.90
2022-10-12T18:28:15.689Z,92.80
2022-10-12T18:30:50.315Z,92.90
2022-10-12T18:33:17.543Z,93.10
2022-10-12T18:35:44.399Z,93.10
2022-10-12T18:38:11.238Z,93.10
2022-10-12T18:40:42.054Z,93.20
2022-10-12T18:43:09.982Z,93.20
2022-10-12T18:45:42.343Z,93.20
2022-10-12T18:48:09.487Z,93.20
2022-10-12T18:50:37.071Z,93.40
2022-10-12T18:53:04.151Z,93.40
2022-10-12T18:55:31.540Z,93.50
2022-10-12T18:57:58.179Z,93.60
2022-10-12T19:00:24.905Z,93.70
2022-10-12T19:02:51.596Z,93.90
2022-10-12T19:05:18.433Z,94.10
2022-10-12T19:07:47.310Z,94.10
2022-10-12T19:10:16.333Z,94.20
2022-10-12T19:12:45.719Z,94.20
2022-10-12T19:15:12.772Z,94.30
2022-10-12T19:17:41.939Z,94.40
2022-10-12T19:20:11.515Z,94.40
2022-10-12T19:22:38.145Z,94.40
2022-10-12T19:25:05.215Z,94.60
2022-10-12T19:27:31.963Z,94.70
2022-10-12T19:30:03.235Z,94.80
2022-10-12T19:32:32.544Z,94.80
2022-10-12T19:34:59.219Z,94.80
2022-10-12T19:37:28.221Z,94.80
2022-10-12T19:39:55.152Z,94.70
2022-10-12T19:42:21.894Z,95.00
2022-10-12T19:44:48.626Z,95.20
2022-10-12T19:47:15.335Z,95.30
2022-10-12T19:49:45.167Z,95.50
2022-10-12T19:52:12.663Z,95.60
2022-10-12T19:54:39.354Z,95.70
2022-10-12T19:57:06.108Z,95.60
2022-10-12T19:59:32.840Z,95.70
2022-10-12T20:02:02.017Z,95.60
2022-10-12T20:04:28.690Z,95.70
2022-10-12T20:06:55.396Z,95.80
2022-10-12T20:09:22.118Z,96.00
2022-10-12T20:11:48.875Z,96.10
2022-10-12T20:14:15.705Z,96.10
2022-10-12T20:16:42.435Z,96.10
2022-10-12T20:19:09.218Z,96.10
2022-10-12T20:21:38.906Z,96.10
2022-10-12T20:24:08.943Z,96.30
2022-10-12T20:26:35.714Z,96.40
2022-10-12T20:29:02.394Z,96.40
2022-10-12T20:31:29.522Z,96.60
2022-10-12T20:33:57.827Z,96.60
2022-10-12T20:36:28.286Z,96.70
2022-10-12T20:38:56.551Z,96.70
2022-10-12T20:41:24.937Z,96.70
2022-10-12T20:43:58.951Z,96.90
2022-10-12T20:46:28.765Z,96.80
2022-10-12T20:48:58.993Z,96.70
2022-10-12T20:51:29.109Z,96.90
2022-10-12T20:53:59.129Z,96.90
2022-10-12T20:56:32.527Z,97.00
2022-10-12T20:59:02.823Z,97.00
2022-10-12T21:16:04.276Z,96.70
2022-10-12T21:18:36.853Z,96.90
2022-10-12T21:21:09.935Z,96.70
2022-10-12T21:29:46.930Z,96.50
2022-10-12T21:46:07.089Z,96.60
2022-10-12T22:27:53.086Z,96.70
2022-10-12T22:30:19.952Z,96.80
2022-10-12T22:32:46.806Z,96.80
2022-10-12T22:35:13.744Z,96.80
2022-10-12T22:37:40.514Z,96.90
2022-10-12T22:40:08.037Z,96.80
2022-10-12T22:42:35.209Z,96.80
2022-10-12T22:45:01.970Z,97.00
2022-10-12T22:47:28.805Z,97.10
2022-10-12T22:49:55.547Z,97.20
2022-10-12T22:52:22.381Z,97.10
2022-10-12T22:54:50.008Z,97.10
2022-10-12T22:57:16.826Z,97.20
2022-10-12T22:59:43.609Z,97.10
2022-10-12T23:02:10.401Z,97.50
2022-10-12T23:04:37.220Z,97.20
2022-10-12T23:07:04.001Z,97.20
2022-10-12T23:09:30.787Z,97.30
2022-10-12T23:11:57.742Z,97.30
2022-10-12T23:14:24.641Z,97.40
2022-10-12T23:16:53.574Z,97.60
2022-10-12T23:19:20.471Z,97.60
2022-10-12T23:21:48.221Z,97.60
2022-10-12T23:24:15.119Z,97.60
2022-10-12T23:26:42.138Z,97.70
2022-10-12T23:29:11.421Z,97.70
2022-10-12T23:31:38.316Z,97.90
2022-10-12T23:34:09.375Z,98.10
2022-10-12T23:36:36.729Z,98.10
2022-10-12T23:39:05.586Z,98.00
2022-10-12T23:41:32.546Z,97.90
2022-10-12T23:44:01.950Z,98.00
2022-10-12T23:46:28.817Z,98.00
2022-10-12T23:48:55.699Z,98.00
2022-10-12T23:51:26.968Z,98.10
2022-10-12T23:53:54.114Z,98.10
2022-10-12T23:56:20.880Z,98.20
2022-10-12T23:58:50.113Z,98.10
